createdAt,value
2022-10-11T00:05:15.066Z,99294.63
2022-10-11T00:10:30.228Z,99298.03
2022-10-11T00:15:46.229Z,99297.28
2022-10-11T00:21:09.244Z,99283.50
2022-10-11T00:26:24.831Z,99279.25
2022-10-11T00:31:40.574Z,99274.03
2022-10-11T00:36:56.444Z,99270.56
2022-10-11T00:42:15.886Z,99267.06
2022-10-11T00:47:31.244Z,99277.47
2022-10-11T00:52:53.376Z,99278.31
2022-10-11T00:58:53.353Z,99276.34
2022-10-11T01:04:09.663Z,99275.41
2022-10-11T01:09:26.905Z,99283.22
2022-10-11T01:14:59.766Z,99278.13
2022-10-11T01:20:32.546Z,99277.22
2022-10-11T01:26:15.598Z,99286.59
2022-10-11T01:31:30.219Z,99281.16
2022-10-11T01:37:01.367Z,99283.72
2022-10-11T01:42:18.935Z,99283.72
2022-10-11T01:47:33.555Z,99284.69
2022-10-11T01:52:48.187Z,99289.97
2022-10-11T01:58:24.998Z,99285.41
2022-10-11T02:03:52.574Z,99283.78
2022-10-11T02:09:17.324Z,99281.25
2022-10-11T02:14:37.234Z,99289.25
2022-10-11T02:19:57.690Z,99289.97
2022-10-11T02:25:22.922Z,99290.22
2022-10-11T02:30:42.218Z,99279.97
2022-10-11T02:36:03.262Z,99273.81
2022-10-11T02:41:32.683Z,99282.38
2022-10-11T02:46:50.376Z,99279.59
2022-10-11T02:52:06.847Z,99281.19
2022-10-11T02:57:22.816Z,99282.84
2022-10-11T03:02:37.334Z,99271.72
2022-10-11T03:07:52.787Z,99280.16
2022-10-11T03:13:07.511Z,99283.19
2022-10-11T03:18:22.834Z,99280.03
2022-10-11T03:23:38.835Z,99281.91
2022-10-11T03:28:53.129Z,99277.69
2022-10-11T03:34:10.120Z,99278.66
2022-10-11T03:39:26.060Z,99284.81
2022-10-11T03:44:39.527Z,99277.16
2022-10-11T03:49:55.401Z,99275.41
2022-10-11T03:55:11.993Z,99277.84
2022-10-11T04:00:28.764Z,99278.75
2022-10-11T04:05:43.728Z,99270.88
2022-10-11T04:11:16.085Z,99283.81
2022-10-11T04:16:32.927Z,99285.53
2022-10-11T04:21:46.916Z,99282.91
2022-10-11T04:27:01.911Z,99284.66
2022-10-11T04:32:16.798Z,99282.09
2022-10-11T04:37:31.841Z,99280.44
2022-10-11T04:42:45.355Z,99287.38
2022-10-11T04:48:01.223Z,99287.44
2022-10-11T04:53:17.067Z,99302.16
2022-10-11T04:58:34.241Z,99299.56
2022-10-11T05:03:50.204Z,99300.56
2022-10-11T05:09:05.358Z,99304.06
2022-10-11T05:14:18.547Z,99296.34
2022-10-11T05:19:34.573Z,99292.88
2022-10-11T05:24:50.029Z,99296.53
2022-10-11T05:30:05.447Z,99291.28
2022-10-11T05:35:22.695Z,99297.25
2022-10-11T05:40:40.819Z,99302.53
2022-10-11T05:45:58.291Z,99311.28
2022-10-11T05:51:12.694Z,99302.66
2022-10-11T05:56:28.045Z,99308.56
2022-10-11T06:01:41.660Z,99318.22
2022-10-11T06:06:55.947Z,99306.06
2022-10-11T06:12:10.025Z,99315.56
2022-10-11T06:17:47.634Z,99305.97
2022-10-11T06:23:21.039Z,99303.31
2022-10-11T06:29:02.171Z,99313.72
2022-10-11T06:34:34.169Z,99315.38
2022-10-11T06:40:06.633Z,99313.50
2022-10-11T06:45:35.834Z,99310.06
2022-10-11T06:51:08.887Z,99312.38
2022-10-11T06:56:41.062Z,99314.19
2022-10-11T07:02:10.744Z,99317.59
2022-10-11T07:07:40.830Z,99317.81
2022-10-11T07:12:54.444Z,99309.94
2022-10-11T07:18:09.191Z,99314.16
2022-10-11T07:23:38.334Z,99326.75
2022-10-11T07:29:09.060Z,99322.91
2022-10-11T07:34:38.006Z,99318.22
2022-10-11T07:40:11.531Z,99305.75
2022-10-11T07:45:41.372Z,99303.19
2022-10-11T07:51:13.946Z,99298.09
2022-10-11T08:02:26.883Z,99300.28
2022-10-11T08:13:46.162Z,99295.84
2022-10-11T08:24:46.883Z,99309.19
2022-10-11T08:30:00.150Z,99308.38
2022-10-11T08:41:21.807Z,99309.03
2022-10-11T08:46:39.180Z,99316.19
2022-10-11T08:52:21.884Z,99309.00
2022-10-11T08:57:39.162Z,99306.28
2022-10-11T09:03:11.251Z,99306.28
2022-10-11T09:09:02.773Z,99299.38
2022-10-11T09:14:43.430Z,99297.41
2022-10-11T09:20:09.848Z,99296.31
2022-10-11T09:25:39.767Z,99308.47
2022-10-11T09:31:01.212Z,99307.41
2022-10-11T09:36:36.577Z,99308.75
2022-10-11T09:42:09.677Z,99311.41
2022-10-11T09:47:34.153Z,99319.31
2022-10-11T09:53:02.042Z,99309.06
2022-10-11T09:58:30.562Z,99314.28
2022-10-11T10:04:12.202Z,99307.47
2022-10-11T10:09:33.580Z,99314.28
2022-10-11T10:15:17.806Z,99315.88
2022-10-11T10:20:39.160Z,99325.28
2022-10-11T10:26:20.483Z,99328.72
2022-10-11T10:32:13.363Z,99320.88
2022-10-11T10:37:36.441Z,99316.19
2022-10-11T10:42:58.243Z,99318.41
2022-10-11T10:48:26.037Z,99314.91
2022-10-11T10:53:57.789Z,99313.53
2022-10-11T10:59:51.801Z,99316.00
2022-10-11T11:05:31.553Z,99328.09
2022-10-11T11:11:20.081Z,99315.13
2022-10-11T11:16:50.258Z,99323.31
2022-10-11T11:22:20.528Z,99338.22
2022-10-11T11:27:59.880Z,99334.94
2022-10-11T11:33:48.967Z,99328.13
2022-10-11T11:39:17.615Z,99336.28
2022-10-11T11:44:43.209Z,99340.78
2022-10-11T11:50:22.610Z,99353.84
2022-10-11T11:55:49.399Z,99354.78
2022-10-11T12:01:31.566Z,99359.16
2022-10-11T12:07:15.415Z,99348.66
2022-10-11T12:12:38.360Z,99361.84
2022-10-11T12:18:01.264Z,99356.75
2022-10-11T12:23:29.134Z,99369.78
2022-10-11T12:29:28.246Z,99363.81
2022-10-11T12:34:50.335Z,99363.91
2022-10-11T12:40:47.215Z,99359.66
2022-10-11T12:46:30.005Z,99362.81
2022-10-11T12:52:12.834Z,99362.97
2022-10-11T12:58:19.399Z,99372.41
2022-10-11T13:03:44.424Z,99371.59
2022-10-11T13:09:33.273Z,99374.00
2022-10-11T13:15:05.571Z,99382.81
2022-10-11T13:20:31.943Z,99392.78
2022-10-11T13:25:54.290Z,99396.16
2022-10-11T13:31:15.649Z,99389.34
2022-10-11T13:36:36.761Z,99398.13
2022-10-11T13:41:59.810Z,99411.09
2022-10-11T13:47:27.014Z,99412.06
2022-10-11T13:52:53.116Z,99404.41
2022-10-11T13:58:25.979Z,99417.38
2022-10-11T14:03:53.773Z,99425.31
2022-10-11T14:09:37.273Z,99428.91
2022-10-11T14:15:03.169Z,99430.63
2022-10-11T14:20:40.031Z,99438.53
2022-10-11T14:26:01.673Z,99439.41
2022-10-11T14:31:23.751Z,99445.50
2022-10-11T14:36:44.880Z,99437.81
2022-10-11T14:42:06.467Z,99440.41
2022-10-11T14:47:27.963Z,99450.09
2022-10-11T14:52:49.394Z,99436.28
2022-10-11T14:58:18.172Z,99451.94
2022-10-11T15:03:39.925Z,99465.78
2022-10-11T15:09:01.482Z,99474.66
2022-10-11T15:14:25.302Z,99482.72
2022-10-11T15:19:46.738Z,99482.78
2022-10-11T15:25:08.352Z,99485.44
2022-10-11T15:30:38.448Z,99495.09
2022-10-11T15:36:02.481Z,99489.91
2022-10-11T15:41:24.216Z,99493.53
2022-10-11T15:46:46.173Z,99497.72
2022-10-11T15:52:07.493Z,99496.06
2022-10-11T15:57:28.921Z,99496.22
2022-10-11T16:02:54.706Z,99492.63
2022-10-11T16:08:16.229Z,99498.69
2022-10-11T16:13:37.507Z,99500.34
2022-10-11T16:18:58.874Z,99495.25
2022-10-11T16:24:20.231Z,99505.66
2022-10-11T16:29:41.766Z,99507.44
2022-10-11T16:35:02.899Z,99503.94
2022-10-11T16:40:26.808Z,99496.88
2022-10-11T16:45:48.568Z,99505.41
2022-10-11T16:51:09.860Z,99497.59
2022-10-11T16:56:37.335Z,99501.88
2022-10-11T17:02:01.119Z,99500.03
2022-10-11T17:07:23.551Z,99510.38
2022-10-11T17:12:49.883Z,99507.66
2022-10-11T17:18:11.242Z,99504.31
2022-10-11T17:23:34.289Z,99500.06
2022-10-11T17:29:00.553Z,99508.78
2022-10-11T17:34:22.366Z,99502.66
2022-10-11T17:39:43.802Z,99504.44
2022-10-11T17:45:05.363Z,99511.25
2022-10-11T17:50:26.684Z,99501.66
2022-10-11T17:55:50.510Z,99502.72
2022-10-11T18:01:15.457Z,99504.31
2022-10-11T18:06:39.691Z,99498.28
2022-10-11T18:12:01.284Z,99502.63
2022-10-11T18:17:22.878Z,99506.88
2022-10-11T18:22:44.050Z,99497.50
2022-10-11T18:28:05.697Z,99502.72
2022-10-11T18:33:27.233Z,99504.38
2022-10-11T18:38:52.762Z,99506.00
2022-10-11T18:44:15.872Z,99502.53
2022-10-11T18:49:37.044Z,99505.94
2022-10-11T18:54:58.780Z,99497.34
2022-10-11T19:00:39.603Z,99507.66
2022-10-11T19:06:12.860Z,99493.94
2022-10-11T19:11:34.377Z,99500.84
2022-10-11T19:16:56.644Z,99507.03
2022-10-11T19:22:18.175Z,99504.44
2022-10-11T19:27:39.600Z,99499.38
2022-10-11T19:33:01.329Z,99502.72
2022-10-11T19:38:22.744Z,99500.78
2022-10-11T19:43:44.351Z,99494.72
2022-10-11T19:49:06.158Z,99500.97
2022-10-11T19:54:27.530Z,99494.00
2022-10-11T19:59:48.813Z,99489.47
2022-10-11T20:05:10.389Z,99496.25
2022-10-11T20:10:31.556Z,99498.69
2022-10-11T20:16:02.693Z,99491.72
2022-10-11T20:21:24.852Z,99495.09
2022-10-11T20:26:46.003Z,99495.25
2022-10-11T20:32:07.242Z,99495.41
2022-10-11T20:37:28.751Z,99497.91
2022-10-11T20:42:50.304Z,99501.66
2022-10-11T20:48:12.087Z,99497.72
2022-10-11T20:53:35.511Z,99512.69
2022-10-11T20:58:58.355Z,99500.63
2022-10-11T21:04:20.770Z,99504.88
2022-10-11T21:09:42.312Z,99510.75
2022-10-11T21:15:04.046Z,99497.84
2022-10-11T21:20:25.562Z,99492.72
2022-10-11T21:25:47.046Z,99496.97
2022-10-11T21:31:17.865Z,99499.09
2022-10-11T21:36:39.079Z,99497.41
2022-10-11T21:42:00.398Z,99505.03
2022-10-11T21:47:21.569Z,99505.91
2022-10-11T21:52:43.046Z,99507.72
2022-10-11T21:58:06.576Z,99510.19
2022-10-11T22:03:28.230Z,99504.25
2022-10-11T22:08:50.164Z,99513.81
2022-10-11T22:14:11.714Z,99508.13
2022-10-11T22:19:33.184Z,99515.47
2022-10-11T22:24:54.386Z,99523.66
2022-10-11T22:30:15.682Z,99508.28
2022-10-11T22:35:38.115Z,99530.03
2022-10-11T22:40:59.357Z,99526.09
2022-10-11T22:46:20.482Z,99525.41
2022-10-11T22:51:41.955Z,99530.63
2022-10-11T22:57:03.079Z,99534.97
2022-10-11T23:02:24.454Z,99529.63
2022-10-11T23:07:49.579Z,99544.25
2022-10-11T23:13:10.633Z,99549.31
2022-10-11T23:18:31.872Z,99541.44
2022-10-11T23:23:54.533Z,99546.41
2022-10-11T23:29:15.831Z,99542.84
2022-10-11T23:34:37.747Z,99542.94
2022-10-11T23:39:58.822Z,99550.06
2022-10-11T23:45:20.084Z,99544.88
2022-10-11T23:50:42.528Z,99545.00
2022-10-11T23:56:04.950Z,99551.44
